sensor_id;sensor_type;location;lat;lon;timestamp;P1;P2;P0
77413;PMS7003;66486;49.992;19.164;2023-02-28T00:00:35;4.00;4.00;0.25
77413;PMS7003;66486;49.992;19.164;2023-02-28T00:03:14;15.75;15.25;10.00
77413;PMS7003;66486;49.992;19.164;2023-02-28T00:05:40;10.00;8.67;7.00
77413;PMS7003;66486;49.992;19.164;2023-02-28T00:08:07;16.67;16.00;12.67
77413;PMS7003;66486;49.992;19.164;2023-02-28T00:10:34;19.25;18.00;11.00
77413;PMS7003;66486;49.992;19.164;2023-02-28T00:13:01;11.75;10.25;7.50
77413;PMS7003;66486;49.992;19.164;2023-02-28T00:15:30;13.00;12.00;6.00
77413;PMS7003;66486;49.992;19.164;2023-02-28T00:17:56;19.00;18.25;10.00
77413;PMS7003;66486;49.992;19.164;2023-02-28T00:20:23;14.00;12.33;9.67
77413;PMS7003;66486;49.992;19.164;2023-02-28T00:22:51;14.25;14.25;10.25
77413;PMS7003;66486;49.992;19.164;2023-02-28T00:25:19;11.50;11.50;7.00
77413;PMS7003;66486;49.992;19.164;2023-02-28T00:27:48;15.75;15.00;9.75
77413;PMS7003;66486;49.992;19.164;2023-02-28T00:30:16;12.25;12.25;7.00
77413;PMS7003;66486;49.992;19.164;2023-02-28T00:32:46;19.25;17.50;12.75
77413;PMS7003;66486;49.992;19.164;2023-02-28T00:35:12;15.33;13.67;9.00
77413;PMS7003;66486;49.992;19.164;2023-02-28T00:37:38;14.25;14.25;9.25
77413;PMS7003;66486;49.992;19.164;2023-02-28T00:40:05;14.67;13.33;6.33
77413;PMS7003;66486;49.992;19.164;2023-02-28T00:42:35;14.67;13.33;7.67
77413;PMS7003;66486;49.992;19.164;2023-02-28T00:45:01;14.00;12.67;8.33
77413;PMS7003;66486;49.992;19.164;2023-02-28T00:47:30;17.75;16.50;9.75
77413;PMS7003;66486;49.992;19.164;2023-02-28T00:49:56;10.67;9.33;7.00
77413;PMS7003;66486;49.992;19.164;2023-02-28T00:52:22;14.50;12.75;9.50
77413;PMS7003;66486;49.992;19.164;2023-02-28T00:54:48;4.67;3.00;3.00
77413;PMS7003;66486;49.992;19.164;2023-02-28T00:57:14;16.00;14.75;12.00
77413;PMS7003;66486;49.992;19.164;2023-02-28T00:59:40;14.67;13.33;9.33
77413;PMS7003;66486;49.992;19.164;2023-02-28T01:02:06;14.75;12.75;9.00
77413;PMS7003;66486;49.992;19.164;2023-02-28T01:04:32;12.00;12.00;9.00
77413;PMS7003;66486;49.992;19.164;2023-02-28T01:06:58;10.00;9.00;6.50
77413;PMS7003;66486;49.992;19.164;2023-02-28T01:09:24;9.33;9.33;9.00
77413;PMS7003;66486;49.992;19.164;2023-02-28T01:11:50;15.75;14.25;9.25
77413;PMS7003;66486;49.992;19.164;2023-02-28T01:14:16;16.00;14.33;10.00
77413;PMS7003;66486;49.992;19.164;2023-02-28T01:16:43;19.75;18.00;11.50
77413;PMS7003;66486;49.992;19.164;2023-02-28T01:19:09;17.67;17.33;11.33
77413;PMS7003;66486;49.992;19.164;2023-02-28T01:21:36;15.75;15.25;9.00
77413;PMS7003;66486;49.992;19.164;2023-02-28T01:24:02;16.00;16.00;9.00
77413;PMS7003;66486;49.992;19.164;2023-02-28T01:26:29;14.75;14.75;10.00
77413;PMS7003;66486;49.992;19.164;2023-02-28T01:28:56;12.33;10.67;3.00
77413;PMS7003;66486;49.992;19.164;2023-02-28T01:31:22;12.67;11.67;7.00
77413;PMS7003;66486;49.992;19.164;2023-02-28T01:33:49;13.67;12.33;6.67
77413;PMS7003;66486;49.992;19.164;2023-02-28T01:36:18;10.00;9.75;6.50
77413;PMS7003;66486;49.992;19.164;2023-02-28T01:38:46;8.33;5.67;4.33
77413;PMS7003;66486;49.992;19.164;2023-02-28T01:41:15;16.67;15.00;8.33
77413;PMS7003;66486;49.992;19.164;2023-02-28T01:46:09;15.00;11.50;8.00
77413;PMS7003;66486;49.992;19.164;2023-02-28T01:48:37;12.67;12.67;9.67
77413;PMS7003;66486;49.992;19.164;2023-02-28T01:51:09;12.25;10.50;7.00
77413;PMS7003;66486;49.992;19.164;2023-02-28T01:53:41;13.67;12.33;9.33
77413;PMS7003;66486;49.992;19.164;2023-02-28T01:56:17;10.00;10.00;7.00
77413;PMS7003;66486;49.992;19.164;2023-02-28T01:58:49;6.75;6.00;3.25
77413;PMS7003;66486;49.992;19.164;2023-02-28T02:01:17;12.67;12.67;10.00
77413;PMS7003;66486;49.992;19.164;2023-02-28T02:03:48;14.33;13.00;4.67
77413;PMS7003;66486;49.992;19.164;2023-02-28T02:06:21;6.33;6.33;3.33
77413;PMS7003;66486;49.992;19.164;2023-02-28T02:08:48;14.00;12.33;9.00
77413;PMS7003;66486;49.992;19.164;2023-02-28T02:11:15;11.33;10.00;7.67
77413;PMS7003;66486;49.992;19.164;2023-02-28T02:24:54;13.25;11.50;6.50
77413;PMS7003;66486;49.992;19.164;2023-02-28T02:27:48;15.67;15.00;11.33
77413;PMS7003;66486;49.992;19.164;2023-02-28T02:30:33;8.00;6.50;1.00
77413;PMS7003;66486;49.992;19.164;2023-02-28T02:41:20;15.00;13.67;9.33
77413;PMS7003;66486;49.992;19.164;2023-02-28T02:46:33;16.67;16.00;10.00
77413;PMS7003;66486;49.992;19.164;2023-02-28T02:49:03;12.33;11.33;8.33
77413;PMS7003;66486;49.992;19.164;2023-02-28T02:51:33;19.00;17.25;9.75
77413;PMS7003;66486;49.992;19.164;2023-02-28T02:56:33;12.00;12.00;7.67
77413;PMS7003;66486;49.992;19.164;2023-02-28T02:59:06;13.67;13.67;9.33
77413;PMS7003;66486;49.992;19.164;2023-02-28T03:01:35;13.00;11.75;9.25
77413;PMS7003;66486;49.992;19.164;2023-02-28T03:04:05;9.00;7.00;6.00
77413;PMS7003;66486;49.992;19.164;2023-02-28T03:06:34;8.67;8.67;7.67
77413;PMS7003;66486;49.992;19.164;2023-02-28T03:09:01;14.50;14.50;9.75
77413;PMS7003;66486;49.992;19.164;2023-02-28T03:11:27;3.00;1.00;1.00
77413;PMS7003;66486;49.992;19.164;2023-02-28T03:19:55;16.00;16.00;10.00
77413;PMS7003;66486;49.992;19.164;2023-02-28T03:22:52;12.75;12.25;10.00
77413;PMS7003;66486;49.992;19.164;2023-02-28T03:28:32;12.50;12.00;6.50
77413;PMS7003;66486;49.992;19.164;2023-02-28T03:34:00;4.33;3.33;0.00
77413;PMS7003;66486;49.992;19.164;2023-02-28T03:36:38;16.67;16.67;10.00
77413;PMS7003;66486;49.992;19.164;2023-02-28T03:39:13;16.25;16.25;9.75
77413;PMS7003;66486;49.992;19.164;2023-02-28T03:41:44;15.50;12.75;6.50
77413;PMS7003;66486;49.992;19.164;2023-02-28T03:44:39;14.00;14.00;9.00
77413;PMS7003;66486;49.992;19.164;2023-02-28T03:49:40;18.50;16.00;12.00
77413;PMS7003;66486;49.992;19.164;2023-02-28T03:52:13;17.75;17.00;11.00
77413;PMS7003;66486;49.992;19.164;2023-02-28T03:54:45;22.25;22.25;13.50
77413;PMS7003;66486;49.992;19.164;2023-02-28T03:57:27;11.00;9.50;4.00
77413;PMS7003;66486;49.992;19.164;2023-02-28T03:59:59;23.50;20.00;12.00
77413;PMS7003;66486;49.992;19.164;2023-02-28T04:02:46;15.00;13.00;7.50
77413;PMS7003;66486;49.992;19.164;2023-02-28T04:05:18;24.00;21.25;12.00
77413;PMS7003;66486;49.992;19.164;2023-02-28T04:07:45;15.00;15.00;11.50
77413;PMS7003;66486;49.992;19.164;2023-02-28T04:10:11;15.50;15.50;10.75
77413;PMS7003;66486;49.992;19.164;2023-02-28T04:12:38;22.25;18.25;11.50
77413;PMS7003;66486;49.992;19.164;2023-02-28T04:15:04;24.00;23.00;16.00
77413;PMS7003;66486;49.992;19.164;2023-02-28T04:17:31;18.25;15.00;11.00
77413;PMS7003;66486;49.992;19.164;2023-02-28T04:19:57;29.75;28.25;16.75
77413;PMS7003;66486;49.992;19.164;2023-02-28T04:22:23;19.00;18.75;13.50
77413;PMS7003;66486;49.992;19.164;2023-02-28T04:24:51;26.00;24.75;13.00
77413;PMS7003;66486;49.992;19.164;2023-02-28T04:27:20;18.25;13.50;6.00
77413;PMS7003;66486;49.992;19.164;2023-02-28T04:29:46;30.25;30.00;15.25
77413;PMS7003;66486;49.992;19.164;2023-02-28T04:32:13;24.75;24.75;15.25
77413;PMS7003;66486;49.992;19.164;2023-02-28T04:34:38;27.00;22.00;15.00
77413;PMS7003;66486;49.992;19.164;2023-02-28T04:37:05;23.75;23.50;12.75
77413;PMS7003;66486;49.992;19.164;2023-02-28T04:39:34;29.50;27.25;15.25
77413;PMS7003;66486;49.992;19.164;2023-02-28T04:42:02;27.25;27.25;17.00
77413;PMS7003;66486;49.992;19.164;2023-02-28T04:44:29;29.00;24.25;12.50
77413;PMS7003;66486;49.992;19.164;2023-02-28T04:46:55;26.75;26.50;15.50
77413;PMS7003;66486;49.992;19.164;2023-02-28T04:49:20;36.00;34.75;15.25
77413;PMS7003;66486;49.992;19.164;2023-02-28T04:51:46;42.25;35.25;21.75
77413;PMS7003;66486;49.992;19.164;2023-02-28T04:54:12;38.75;35.50;21.50
77413;PMS7003;66486;49.992;19.164;2023-02-28T04:56:39;54.25;42.25;24.75
77413;PMS7003;66486;49.992;19.164;2023-02-28T04:59:04;40.50;34.25;19.50
77413;PMS7003;66486;49.992;19.164;2023-02-28T05:01:31;34.25;30.50;17.50
77413;PMS7003;66486;49.992;19.164;2023-02-28T05:03:59;38.00;32.00;18.00
77413;PMS7003;66486;49.992;19.164;2023-02-28T05:06:28;32.75;31.00;19.00
77413;PMS7003;66486;49.992;19.164;2023-02-28T05:08:55;27.75;23.00;14.75
77413;PMS7003;66486;49.992;19.164;2023-02-28T05:11:29;27.50;27.25;17.00
77413;PMS7003;66486;49.992;19.164;2023-02-28T05:14:08;39.75;33.00;15.25
77413;PMS7003;66486;49.992;19.164;2023-02-28T05:16:37;41.75;37.75;18.25
77413;PMS7003;66486;49.992;19.164;2023-02-28T05:19:03;21.00;18.00;9.75
77413;PMS7003;66486;49.992;19.164;2023-02-28T05:21:30;40.25;26.00;15.50
77413;PMS7003;66486;49.992;19.164;2023-02-28T05:24:02;31.50;28.50;14.50
77413;PMS7003;66486;49.992;19.164;2023-02-28T05:26:30;33.75;30.25;16.25
77413;PMS7003;66486;49.992;19.164;2023-02-28T05:28:59;27.00;27.00;19.00
77413;PMS7003;66486;49.992;19.164;2023-02-28T05:31:26;30.00;23.75;15.50
77413;PMS7003;66486;49.992;19.164;2023-02-28T05:33:52;21.50;18.75;12.75
77413;PMS7003;66486;49.992;19.164;2023-02-28T05:36:18;19.00;18.00;13.00
77413;PMS7003;66486;49.992;19.164;2023-02-28T05:38:48;18.50;17.50;9.00
77413;PMS7003;66486;49.992;19.164;2023-02-28T05:41:16;22.50;22.00;12.50
77413;PMS7003;66486;49.992;19.164;2023-02-28T05:43:44;21.50;20.50;11.50
77413;PMS7003;66486;49.992;19.164;2023-02-28T05:46:11;21.50;19.75;11.00
77413;PMS7003;66486;49.992;19.164;2023-02-28T05:48:38;23.25;21.00;13.25
77413;PMS7003;66486;49.992;19.164;2023-02-28T05:51:05;32.50;26.75;14.00
77413;PMS7003;66486;49.992;19.164;2023-02-28T05:53:33;16.00;16.00;12.25
77413;PMS7003;66486;49.992;19.164;2023-02-28T05:55:59;20.75;18.75;11.50
77413;PMS7003;66486;49.992;19.164;2023-02-28T05:58:26;17.25;16.50;8.00
77413;PMS7003;66486;49.992;19.164;2023-02-28T06:00:59;18.25;16.75;12.00
77413;PMS7003;66486;49.992;19.164;2023-02-28T06:03:26;17.75;13.25;5.75
77413;PMS7003;66486;49.992;19.164;2023-02-28T06:05:53;27.75;24.50;13.00
77413;PMS7003;66486;49.992;19.164;2023-02-28T06:08:19;13.75;12.00;4.00
77413;PMS7003;66486;49.992;19.164;2023-02-28T06:10:45;22.25;20.25;11.50
77413;PMS7003;66486;49.992;19.164;2023-02-28T06:13:11;12.00;12.00;6.00
77413;PMS7003;66486;49.992;19.164;2023-02-28T06:15:38;17.00;14.75;10.50
77413;PMS7003;66486;49.992;19.164;2023-02-28T06:18:04;21.25;21.25;16.25
77413;PMS7003;66486;49.992;19.164;2023-02-28T06:20:31;21.50;21.50;12.75
77413;PMS7003;66486;49.992;19.164;2023-02-28T06:22:57;21.00;21.00;13.00
77413;PMS7003;66486;49.992;19.164;2023-02-28T06:25:27;25.00;25.00;15.00
77413;PMS7003;66486;49.992;19.164;2023-02-28T06:27:54;26.50;26.00;15.50
77413;PMS7003;66486;49.992;19.164;2023-02-28T06:30:21;22.00;20.00;12.00
77413;PMS7003;66486;49.992;19.164;2023-02-28T06:32:50;9.75;9.00;6.00
77413;PMS7003;66486;49.992;19.164;2023-02-28T06:35:17;20.50;18.50;12.25
77413;PMS7003;66486;49.992;19.164;2023-02-28T06:37:43;22.75;19.50;12.25
77413;PMS7003;66486;49.992;19.164;2023-02-28T06:40:10;19.00;19.00;12.00
77413;PMS7003;66486;49.992;19.164;2023-02-28T06:42:36;18.25;16.25;11.50
77413;PMS7003;66486;49.992;19.164;2023-02-28T06:45:02;25.00;22.00;12.75
77413;PMS7003;66486;49.992;19.164;2023-02-28T06:47:35;17.25;16.25;11.50
77413;PMS7003;66486;49.992;19.164;2023-02-28T06:50:02;13.50;12.00;7.50
77413;PMS7003;66486;49.992;19.164;2023-02-28T06:52:29;13.50;12.50;4.00
77413;PMS7003;66486;49.992;19.164;2023-02-28T06:54:55;24.75;22.75;15.00
77413;PMS7003;66486;49.992;19.164;2023-02-28T06:57:31;9.75;9.00;5.50
77413;PMS7003;66486;49.992;19.164;2023-02-28T06:59:59;18.00;17.00;12.00
77413;PMS7003;66486;49.992;19.164;2023-02-28T07:02:27;14.00;12.00;8.00
77413;PMS7003;66486;49.992;19.164;2023-02-28T07:04:53;21.25;18.25;10.50
77413;PMS7003;66486;49.992;19.164;2023-02-28T07:07:19;12.25;10.50;7.50
77413;PMS7003;66486;49.992;19.164;2023-02-28T07:09:45;24.75;23.75;15.00
77413;PMS7003;66486;49.992;19.164;2023-02-28T07:12:11;17.50;15.25;9.75
77413;PMS7003;66486;49.992;19.164;2023-02-28T07:14:37;13.50;13.00;8.50
77413;PMS7003;66486;49.992;19.164;2023-02-28T07:17:03;16.25;15.25;9.75
77413;PMS7003;66486;49.992;19.164;2023-02-28T07:19:31;15.33;13.00;8.33
77413;PMS7003;66486;49.992;19.164;2023-02-28T07:21:58;18.67;18.67;10.00
77413;PMS7003;66486;49.992;19.164;2023-02-28T07:24:23;19.67;19.00;11.33
77413;PMS7003;66486;49.992;19.164;2023-02-28T07:26:53;12.25;8.00;2.50
77413;PMS7003;66486;49.992;19.164;2023-02-28T07:29:19;15.67;13.00;9.00
77413;PMS7003;66486;49.992;19.164;2023-02-28T07:31:45;16.00;13.00;8.33
77413;PMS7003;66486;49.992;19.164;2023-02-28T07:34:12;18.67;16.00;12.00
77413;PMS7003;66486;49.992;19.164;2023-02-28T07:36:39;23.50;23.00;12.75
77413;PMS7003;66486;49.992;19.164;2023-02-28T07:39:04;21.00;19.67;11.33
77413;PMS7003;66486;49.992;19.164;2023-02-28T07:41:31;23.67;23.67;15.67
77413;PMS7003;66486;49.992;19.164;2023-02-28T07:43:59;21.33;19.67;9.67
77413;PMS7003;66486;49.992;19.164;2023-02-28T07:46:25;21.33;18.67;12.00
77413;PMS7003;66486;49.992;19.164;2023-02-28T07:48:51;18.33;18.33;10.00
77413;PMS7003;66486;49.992;19.164;2023-02-28T07:51:19;31.00;31.00;16.00
77413;PMS7003;66486;49.992;19.164;2023-02-28T07:53:46;32.67;29.33;14.33
77413;PMS7003;66486;49.992;19.164;2023-02-28T07:56:12;25.67;22.67;13.00
77413;PMS7003;66486;49.992;19.164;2023-02-28T07:58:38;21.00;19.00;12.00
77413;PMS7003;66486;49.992;19.164;2023-02-28T08:01:04;24.50;22.50;15.75
77413;PMS7003;66486;49.992;19.164;2023-02-28T08:03:32;24.50;21.50;12.00
77413;PMS7003;66486;49.992;19.164;2023-02-28T08:05:58;9.50;7.25;6.25
77413;PMS7003;66486;49.992;19.164;2023-02-28T08:08:24;22.33;22.33;15.00
77413;PMS7003;66486;49.992;19.164;2023-02-28T08:11:00;22.00;22.00;14.50
77413;PMS7003;66486;49.992;19.164;2023-02-28T08:13:27;27.25;23.75;12.75
77413;PMS7003;66486;49.992;19.164;2023-02-28T08:15:55;25.00;23.75;12.25
77413;PMS7003;66486;49.992;19.164;2023-02-28T08:18:22;21.00;20.00;9.00
77413;PMS7003;66486;49.992;19.164;2023-02-28T08:20:49;24.75;23.75;14.00
77413;PMS7003;66486;49.992;19.164;2023-02-28T08:23:15;22.00;20.00;12.25
77413;PMS7003;66486;49.992;19.164;2023-02-28T08:25:41;21.75;19.00;8.50
77413;PMS7003;66486;49.992;19.164;2023-02-28T08:28:07;19.67;19.00;13.67
77413;PMS7003;66486;49.992;19.164;2023-02-28T08:30:33;13.00;12.00;9.25
77413;PMS7003;66486;49.992;19.164;2023-02-28T08:32:59;18.33;16.00;13.00
77413;PMS7003;66486;49.992;19.164;2023-02-28T08:35:25;26.75;22.25;12.75
77413;PMS7003;66486;49.992;19.164;2023-02-28T08:37:51;22.67;20.33;12.67
77413;PMS7003;66486;49.992;19.164;2023-02-28T08:40:17;20.50;18.75;12.50
77413;PMS7003;66486;49.992;19.164;2023-02-28T08:42:44;15.25;15.25;14.00
77413;PMS7003;66486;49.992;19.164;2023-02-28T08:45:11;27.75;24.75;17.00
77413;PMS7003;66486;49.992;19.164;2023-02-28T08:47:38;19.00;18.00;12.50
77413;PMS7003;66486;49.992;19.164;2023-02-28T08:50:05;14.00;12.25;8.75
77413;PMS7003;66486;49.992;19.164;2023-02-28T08:52:31;20.25;19.50;12.50
77413;PMS7003;66486;49.992;19.164;2023-02-28T08:54:57;23.00;20.25;11.00
77413;PMS7003;66486;49.992;19.164;2023-02-28T08:57:23;20.33;17.67;9.67
77413;PMS7003;66486;49.992;19.164;2023-02-28T08:59:51;31.00;28.00;18.00
77413;PMS7003;66486;49.992;19.164;2023-02-28T09:02:18;27.25;25.00;15.75
77413;PMS7003;66486;49.992;19.164;2023-02-28T09:04:44;19.50;17.50;10.00
77413;PMS7003;66486;49.992;19.164;2023-02-28T09:07:13;21.25;20.00;12.25
77413;PMS7003;66486;49.992;19.164;2023-02-28T09:09:39;29.75;25.00;14.50
77413;PMS7003;66486;49.992;19.164;2023-02-28T09:12:19;18.75;17.00;10.00
77413;PMS7003;66486;49.992;19.164;2023-02-28T09:14:46;16.50;16.50;10.50
77413;PMS7003;66486;49.992;19.164;2023-02-28T09:17:12;19.67;18.00;12.00
77413;PMS7003;66486;49.992;19.164;2023-02-28T09:19:38;23.00;21.25;12.75
77413;PMS7003;66486;49.992;19.164;2023-02-28T09:22:04;12.00;12.00;10.67
77413;PMS7003;66486;49.992;19.164;2023-02-28T09:24:30;15.75;15.00;10.50
77413;PMS7003;66486;49.992;19.164;2023-02-28T09:26:57;16.00;13.50;9.25
77413;PMS7003;66486;49.992;19.164;2023-02-28T09:29:23;13.75;13.75;10.00
77413;PMS7003;66486;49.992;19.164;2023-02-28T09:31:49;13.67;13.67;10.00
77413;PMS7003;66486;49.992;19.164;2023-02-28T09:34:15;13.00;12.00;9.25
77413;PMS7003;66486;49.992;19.164;2023-02-28T09:36:42;13.75;11.50;6.50
77413;PMS7003;66486;49.992;19.164;2023-02-28T09:39:09;13.60;11.60;7.80
77413;PMS7003;66486;49.992;19.164;2023-02-28T09:41:39;18.50;17.50;10.50
77413;PMS7003;66486;49.992;19.164;2023-02-28T09:44:28;13.75;13.25;9.25
77413;PMS7003;66486;49.992;19.164;2023-02-28T09:47:12;24.00;23.50;15.00
77413;PMS7003;66486;49.992;19.164;2023-02-28T09:49:46;25.25;24.50;14.75
77413;PMS7003;66486;49.992;19.164;2023-02-28T09:52:20;11.50;11.50;8.50
77413;PMS7003;66486;49.992;19.164;2023-02-28T09:54:52;18.25;17.00;10.50
77413;PMS7003;66486;49.992;19.164;2023-02-28T10:08:19;25.00;23.25;14.00
77413;PMS7003;66486;49.992;19.164;2023-02-28T10:10:57;27.75;27.25;15.25
77413;PMS7003;66486;49.992;19.164;2023-02-28T10:13:27;16.25;15.00;11.50
77413;PMS7003;66486;49.992;19.164;2023-02-28T10:16:26;21.25;17.25;11.50
77413;PMS7003;66486;49.992;19.164;2023-02-28T10:19:19;21.25;19.00;11.00
77413;PMS7003;66486;49.992;19.164;2023-02-28T10:21:49;18.75;16.00;10.50
77413;PMS7003;66486;49.992;19.164;2023-02-28T10:26:56;15.80;15.80;11.20
77413;PMS7003;66486;49.992;19.164;2023-02-28T10:29:27;16.25;15.00;8.75
77413;PMS7003;66486;49.992;19.164;2023-02-28T10:31:57;22.40;20.60;13.80
77413;PMS7003;66486;49.992;19.164;2023-02-28T10:34:27;24.50;21.50;14.00
77413;PMS7003;66486;49.992;19.164;2023-02-28T10:36:53;20.50;19.00;10.00
77413;PMS7003;66486;49.992;19.164;2023-02-28T10:39:34;18.75;18.00;9.75
77413;PMS7003;66486;49.992;19.164;2023-02-28T10:42:02;25.00;25.00;16.00
77413;PMS7003;66486;49.992;19.164;2023-02-28T10:44:29;24.75;21.75;14.50
77413;PMS7003;66486;49.992;19.164;2023-02-28T10:46:55;15.00;15.00;9.50
77413;PMS7003;66486;49.992;19.164;2023-02-28T10:49:31;18.20;16.00;10.00
77413;PMS7003;66486;49.992;19.164;2023-02-28T10:51:58;7.00;7.00;4.50
77413;PMS7003;66486;49.992;19.164;2023-02-28T10:54:33;25.00;24.00;15.20
77413;PMS7003;66486;49.992;19.164;2023-02-28T10:57:20;16.00;15.50;12.00
77413;PMS7003;66486;49.992;19.164;2023-02-28T10:59:53;14.60;13.00;8.60
77413;PMS7003;66486;49.992;19.164;2023-02-28T11:02:39;15.60;14.60;9.40
77413;PMS7003;66486;49.992;19.164;2023-02-28T11:08:12;16.40;16.40;11.60
77413;PMS7003;66486;49.992;19.164;2023-02-28T11:10:53;22.20;20.00;13.00
77413;PMS7003;66486;49.992;19.164;2023-02-28T11:13:26;21.00;19.40;11.20
77413;PMS7003;66486;49.992;19.164;2023-02-28T11:15:58;16.00;13.00;7.00
77413;PMS7003;66486;49.992;19.164;2023-02-28T11:21:09;18.80;18.40;11.20
77413;PMS7003;66486;49.992;19.164;2023-02-28T11:23:42;20.40;19.60;12.00
77413;PMS7003;66486;49.992;19.164;2023-02-28T11:26:08;20.00;15.40;10.00
77413;PMS7003;66486;49.992;19.164;2023-02-28T11:28:38;16.80;14.40;11.20
77413;PMS7003;66486;49.992;19.164;2023-02-28T11:36:19;17.00;17.00;11.80
77413;PMS7003;66486;49.992;19.164;2023-02-28T11:39:00;16.00;13.40;10.00
77413;PMS7003;66486;49.992;19.164;2023-02-28T11:47:33;12.80;12.20;6.80
77413;PMS7003;66486;49.992;19.164;2023-02-28T11:57:56;10.80;10.80;7.00
77413;PMS7003;66486;49.992;19.164;2023-02-28T12:00:30;17.40;16.00;11.20
77413;PMS7003;66486;49.992;19.164;2023-02-28T12:06:12;14.60;13.60;10.20
77413;PMS7003;66486;49.992;19.164;2023-02-28T12:09:09;14.20;12.20;7.00
77413;PMS7003;66486;49.992;19.164;2023-02-28T12:11:48;19.00;18.00;9.20
77413;PMS7003;66486;49.992;19.164;2023-02-28T12:17:29;12.00;8.60;8.00
77413;PMS7003;66486;49.992;19.164;2023-02-28T12:25:48;10.00;9.40;7.40
77413;PMS7003;66486;49.992;19.164;2023-02-28T12:28:40;17.80;15.00;9.60
77413;PMS7003;66486;49.992;19.164;2023-02-28T12:31:19;14.40;13.60;7.80
77413;PMS7003;66486;49.992;19.164;2023-02-28T12:33:52;15.60;15.60;9.60
77413;PMS7003;66486;49.992;19.164;2023-02-28T12:36:22;18.20;14.60;9.20
77413;PMS7003;66486;49.992;19.164;2023-02-28T12:38:53;18.60;17.20;9.00
77413;PMS7003;66486;49.992;19.164;2023-02-28T12:44:14;7.60;6.80;4.40
77413;PMS7003;66486;49.992;19.164;2023-02-28T12:46:50;18.60;15.20;10.80
77413;PMS7003;66486;49.992;19.164;2023-02-28T12:52:00;18.40;16.00;10.40
77413;PMS7003;66486;49.992;19.164;2023-02-28T13:00:32;12.20;12.20;6.60
77413;PMS7003;66486;49.992;19.164;2023-02-28T13:10:56;15.80;15.80;10.40
77413;PMS7003;66486;49.992;19.164;2023-02-28T13:13:26;18.00;18.00;12.00
77413;PMS7003;66486;49.992;19.164;2023-02-28T13:16:07;18.40;15.00;9.80
77413;PMS7003;66486;49.992;19.164;2023-02-28T13:21:09;16.00;15.20;9.40
77413;PMS7003;66486;49.992;19.164;2023-02-28T13:47:30;16.80;15.20;9.20
77413;PMS7003;66486;49.992;19.164;2023-02-28T14:01:37;14.60;14.60;9.40
77413;PMS7003;66486;49.992;19.164;2023-02-28T14:07:01;14.20;13.60;7.80
77413;PMS7003;66486;49.992;19.164;2023-02-28T14:09:30;11.20;11.20;7.00
77413;PMS7003;66486;49.992;19.164;2023-02-28T14:15:03;17.60;17.20;9.80
77413;PMS7003;66486;49.992;19.164;2023-02-28T14:17:30;13.80;13.00;9.00
77413;PMS7003;66486;49.992;19.164;2023-02-28T14:19:58;10.40;8.20;6.80
77413;PMS7003;66486;49.992;19.164;2023-02-28T14:22:50;11.80;10.60;7.00
77413;PMS7003;66486;49.992;19.164;2023-02-28T14:31:29;11.00;10.40;6.80
77413;PMS7003;66486;49.992;19.164;2023-02-28T14:34:04;18.00;16.80;10.00
77413;PMS7003;66486;49.992;19.164;2023-02-28T14:36:44;15.00;12.40;8.20
77413;PMS7003;66486;49.992;19.164;2023-02-28T14:39:18;13.00;12.40;9.00
77413;PMS7003;66486;49.992;19.164;2023-02-28T14:41:48;15.80;14.60;8.60
77413;PMS7003;66486;49.992;19.164;2023-02-28T14:44:18;9.25;9.25;6.00
77413;PMS7003;66486;49.992;19.164;2023-02-28T14:46:52;17.80;12.80;7.00
77413;PMS7003;66486;49.992;19.164;2023-02-28T14:49:27;13.80;11.40;9.40
77413;PMS7003;66486;49.992;19.164;2023-02-28T14:52:05;17.60;14.60;7.00
77413;PMS7003;66486;49.992;19.164;2023-02-28T14:54:35;12.00;12.00;8.60
77413;PMS7003;66486;49.992;19.164;2023-02-28T14:57:03;17.80;17.80;13.00
77413;PMS7003;66486;49.992;19.164;2023-02-28T14:59:30;12.40;12.40;9.20
77413;PMS7003;66486;49.992;19.164;2023-02-28T15:02:15;14.20;13.00;9.40
77413;PMS7003;66486;49.992;19.164;2023-02-28T15:05:01;15.00;15.00;9.40
77413;PMS7003;66486;49.992;19.164;2023-02-28T15:07:36;11.20;10.00;8.60
77413;PMS7003;66486;49.992;19.164;2023-02-28T15:10:09;12.00;10.40;7.00
77413;PMS7003;66486;49.992;19.164;2023-02-28T15:12:36;10.00;10.00;7.00
77413;PMS7003;66486;49.992;19.164;2023-02-28T15:15:02;10.00;10.00;7.00
77413;PMS7003;66486;49.992;19.164;2023-02-28T15:17:29;10.40;10.40;6.40
77413;PMS7003;66486;49.992;19.164;2023-02-28T15:19:55;15.60;13.40;9.60
77413;PMS7003;66486;49.992;19.164;2023-02-28T15:22:30;15.20;14.40;9.20
77413;PMS7003;66486;49.992;19.164;2023-02-28T15:25:01;9.80;9.80;7.40
77413;PMS7003;66486;49.992;19.164;2023-02-28T15:27:31;17.00;15.20;9.60
77413;PMS7003;66486;49.992;19.164;2023-02-28T15:30:05;10.00;10.00;9.00
77413;PMS7003;66486;49.992;19.164;2023-02-28T15:32:35;9.40;9.20;7.00
77413;PMS7003;66486;49.992;19.164;2023-02-28T15:35:24;19.60;15.60;8.20
77413;PMS7003;66486;49.992;19.164;2023-02-28T15:37:56;10.80;9.80;7.00
77413;PMS7003;66486;49.992;19.164;2023-02-28T15:40:29;13.00;13.00;10.00
77413;PMS7003;66486;49.992;19.164;2023-02-28T15:43:12;13.00;12.00;9.00
77413;PMS7003;66486;49.992;19.164;2023-02-28T15:45:50;10.20;10.20;5.60
77413;PMS7003;66486;49.992;19.164;2023-02-28T15:48:20;17.80;16.80;9.60
77413;PMS7003;66486;49.992;19.164;2023-02-28T15:50:51;5.00;3.60;3.00
77413;PMS7003;66486;49.992;19.164;2023-02-28T15:53:45;16.00;15.25;10.00
77413;PMS7003;66486;49.992;19.164;2023-02-28T15:56:20;13.25;12.75;6.75
77413;PMS7003;66486;49.992;19.164;2023-02-28T15:58:55;8.20;8.20;7.00
77413;PMS7003;66486;49.992;19.164;2023-02-28T16:01:27;9.00;9.00;5.00
77413;PMS7003;66486;49.992;19.164;2023-02-28T16:04:03;9.50;7.00;6.00
77413;PMS7003;66486;49.992;19.164;2023-02-28T16:06:32;13.50;13.25;10.25
77413;PMS7003;66486;49.992;19.164;2023-02-28T16:09:18;15.00;12.75;9.00
77413;PMS7003;66486;49.992;19.164;2023-02-28T16:11:45;12.67;12.67;9.00
77413;PMS7003;66486;49.992;19.164;2023-02-28T16:14:20;15.50;13.25;10.50
77413;PMS7003;66486;49.992;19.164;2023-02-28T16:16:54;15.50;11.50;9.00
77413;PMS7003;66486;49.992;19.164;2023-02-28T16:19:22;17.00;17.00;9.75
77413;PMS7003;66486;49.992;19.164;2023-02-28T16:21:48;11.75;9.50;4.00
77413;PMS7003;66486;49.992;19.164;2023-02-28T16:24:15;8.75;7.00;4.75
77413;PMS7003;66486;49.992;19.164;2023-02-28T16:26:41;15.67;15.33;9.00
77413;PMS7003;66486;49.992;19.164;2023-02-28T16:29:13;9.50;9.50;6.25
77413;PMS7003;66486;49.992;19.164;2023-02-28T16:31:56;10.50;10.25;7.50
77413;PMS7003;66486;49.992;19.164;2023-02-28T16:34:23;15.50;13.75;8.00
77413;PMS7003;66486;49.992;19.164;2023-02-28T16:36:50;15.00;15.00;9.00
77413;PMS7003;66486;49.992;19.164;2023-02-28T16:39:17;17.50;17.00;9.75